Time;durP1;ratioP1;P1;durP2;ratioP2;P2;SDS_P1;SDS_P2;PMS_P1;PMS_P2;Temp;Humidity;BMP_temperature;BMP_pressure;BME280_temperature;BME280_humidity;BME280_pressure;Samples;Min_cycle;Max_cycle;Signal;HPM_P1;HPM_P2
2023/04/01 00:00:27;;;;;;;9.60;5.63;;;9.80;99.90;;;;;;5064112;28;20074;-76
2023/04/01 00:02:53;;;;;;;8.27;5.90;;;9.80;99.90;;;;;;5070667;28;20064;-78
2023/04/01 00:05:24;;;;;;;8.23;5.43;;;9.80;99.90;;;;;;5071276;28;20043;-78
2023/04/01 00:07:50;;;;;;;9.30;5.95;;;9.80;99.90;;;;;;5055652;28;20069;-78
2023/04/01 00:10:17;;;;;;;9.00;6.18;;;9.80;99.90;;;;;;5054990;28;20491;-78
2023/04/01 00:12:46;;;;;;;8.98;5.88;;;9.80;99.90;;;;;;5054854;28;20480;-77
2023/04/01 00:15:12;;;;;;;7.57;5.07;;;9.80;99.90;;;;;;5071503;28;20051;-79
2023/04/01 00:17:38;;;;;;;9.77;5.65;;;9.80;99.90;;;;;;5075015;28;20067;-78
2023/04/01 00:20:07;;;;;;;10.13;5.25;;;9.80;99.90;;;;;;5070954;28;20040;-79
2023/04/01 00:22:33;;;;;;;6.80;4.93;;;9.80;99.90;;;;;;5069686;28;20040;-82
2023/04/01 00:24:59;;;;;;;6.55;4.75;;;9.70;99.90;;;;;;5068120;28;20480;-82
2023/04/01 00:27:25;;;;;;;5.28;4.65;;;9.70;99.90;;;;;;5069865;28;20044;-83
2023/04/01 00:29:51;;;;;;;6.80;4.32;;;9.80;99.90;;;;;;5094760;28;20051;-80
2023/04/01 00:32:17;;;;;;;6.20;3.72;;;9.80;99.90;;;;;;5062927;28;20040;-84
2023/04/01 00:34:44;;;;;;;6.50;4.28;;;9.70;99.90;;;;;;5069873;28;20041;-83
2023/04/01 00:37:11;;;;;;;6.93;3.53;;;9.70;99.90;;;;;;5079050;28;20040;-84
2023/04/01 00:39:37;;;;;;;4.93;3.35;;;9.70;99.90;;;;;;5096411;28;20051;-83
2023/04/01 00:42:03;;;;;;;3.67;2.58;;;9.70;99.90;;;;;;5060791;28;20045;-84
2023/04/01 00:44:36;;;;;;;3.70;2.42;;;9.70;99.90;;;;;;5062439;28;20102;-83
2023/04/01 00:47:02;;;;;;;3.47;2.05;;;9.70;99.90;;;;;;5066799;28;20660;-83
2023/04/01 00:49:44;;;;;;;3.13;1.50;;;9.70;99.90;;;;;;5064306;28;20086;-81
2023/04/01 00:52:15;;;;;;;2.40;1.25;;;9.70;99.90;;;;;;5077120;28;20043;-83
2023/04/01 00:54:45;;;;;;;4.90;1.80;;;9.70;99.90;;;;;;5057638;28;20072;-83
2023/04/01 00:57:23;;;;;;;1.75;1.33;;;9.70;99.90;;;;;;5081913;28;20035;-82
2023/04/01 00:59:53;;;;;;;3.00;2.05;;;9.70;99.90;;;;;;5073740;28;20044;-83
2023/04/01 01:02:20;;;;;;;3.97;2.30;;;9.60;99.90;;;;;;5063911;28;20376;-77
2023/04/01 01:04:46;;;;;;;3.45;2.70;;;9.60;99.90;;;;;;5068523;28;20048;-76
2023/04/01 01:07:37;;;;;;;4.32;2.47;;;9.60;99.90;;;;;;5061722;28;20040;-76
2023/04/01 01:10:21;;;;;;;4.10;2.65;;;9.60;99.90;;;;;;5066139;28;20035;-78
2023/04/01 01:13:33;;;;;;;4.00;3.08;;;9.60;99.90;;;;;;5076899;28;20036;-77
2023/04/01 01:16:20;;;;;;;4.15;3.10;;;9.60;99.90;;;;;;5018699;28;20110;-77
2023/04/01 01:19:00;;;;;;;5.00;3.25;;;9.50;99.90;;;;;;5006080;28;20544;-77
2023/04/01 01:21:47;;;;;;;8.88;3.38;;;9.50;99.90;;;;;;5047973;28;20083;-77
2023/04/01 01:24:18;;;;;;;5.22;3.75;;;9.50;99.90;;;;;;5079533;28;20052;-78
2023/04/01 01:26:44;;;;;;;7.03;3.58;;;9.50;99.90;;;;;;5068745;28;20112;-79
2023/04/01 01:29:47;;;;;;;4.53;3.47;;;9.50;99.90;;;;;;5073692;28;20586;-81
2023/04/01 01:32:16;;;;;;;5.35;3.00;;;9.50;99.90;;;;;;5068679;28;20640;-80
2023/04/01 01:35:13;;;;;;;4.80;3.95;;;9.50;99.90;;;;;;5046124;28;20067;-80
2023/04/01 01:37:40;;;;;;;6.63;4.25;;;9.50;99.90;;;;;;5057166;28;20043;-81
2023/04/01 01:40:11;;;;;;;8.93;4.32;;;9.50;99.90;;;;;;5053200;28;20040;-80
2023/04/01 01:42:40;;;;;;;6.50;4.03;;;9.50;99.90;;;;;;5053483;28;20044;-81
2023/04/01 01:45:09;;;;;;;8.30;4.78;;;9.60;99.90;;;;;;5070342;28;20047;-81
2023/04/01 01:47:36;;;;;;;9.82;5.28;;;9.60;99.90;;;;;;5055077;28;20499;-81
2023/04/01 01:50:03;;;;;;;8.13;4.75;;;9.60;99.90;;;;;;5054967;28;20460;-81
2023/04/01 01:52:29;;;;;;;10.15;5.25;;;9.50;99.90;;;;;;5071036;28;20040;-81
2023/04/01 01:54:57;;;;;;;8.80;5.18;;;9.60;99.90;;;;;;5065677;28;20112;-81
2023/04/01 01:57:33;;;;;;;6.32;4.85;;;9.60;99.90;;;;;;5057553;28;20149;-81
2023/04/01 02:00:12;;;;;;;7.68;4.68;;;9.60;99.90;;;;;;5068250;28;20542;-81
2023/04/01 02:02:45;;;;;;;8.50;4.85;;;9.60;99.90;;;;;;5050806;28;20036;-81
2023/04/01 02:05:17;;;;;;;5.30;4.70;;;9.60;99.90;;;;;;5050108;28;20052;-81
2023/04/01 02:07:48;;;;;;;8.50;5.32;;;9.60;99.90;;;;;;5070629;28;20447;-81
2023/04/01 02:10:14;;;;;;;7.57;5.25;;;9.60;99.90;;;;;;5070850;28;20043;-81
2023/04/01 02:12:42;;;;;;;14.05;5.55;;;9.60;99.90;;;;;;5052782;28;20032;-81
2023/04/01 02:15:11;;;;;;;10.95;5.40;;;9.60;99.90;;;;;;5077230;28;20101;-83
2023/04/01 02:17:42;;;;;;;9.88;5.03;;;9.60;99.90;;;;;;5060914;28;20044;-84
2023/04/01 02:20:29;;;;;;;7.25;4.75;;;9.60;99.90;;;;;;5079749;28;20040;-84
2023/04/01 02:22:59;;;;;;;6.72;4.30;;;9.60;99.90;;;;;;5080983;28;20113;-81
2023/04/01 02:25:35;;;;;;;9.98;5.30;;;9.60;99.90;;;;;;5080664;28;20050;-84
2023/04/01 02:28:03;;;;;;;8.70;4.88;;;9.60;99.90;;;;;;5081035;28;20074;-84
2023/04/01 02:30:31;;;;;;;10.15;5.03;;;9.60;99.90;;;;;;5084736;28;20103;-83
2023/04/01 02:32:59;;;;;;;6.97;4.68;;;9.60;99.90;;;;;;5067866;28;20072;-84
2023/04/01 02:35:25;;;;;;;13.25;5.13;;;9.60;99.90;;;;;;5065259;28;20047;-84
2023/04/01 02:37:53;;;;;;;8.18;4.28;;;9.60;99.90;;;;;;5072212;28;20075;-82
2023/04/01 02:40:19;;;;;;;13.50;5.07;;;9.70;99.90;;;;;;5070915;28;20362;-82
2023/04/01 02:42:45;;;;;;;6.25;4.25;;;9.70;99.90;;;;;;5062044;28;20539;-82
2023/04/01 02:45:12;;;;;;;7.25;4.35;;;9.60;99.90;;;;;;5070182;28;20044;-82
2023/04/01 02:47:38;;;;;;;11.23;5.18;;;9.70;99.90;;;;;;5051917;28;20076;-81
2023/04/01 02:50:05;;;;;;;9.88;4.82;;;9.60;99.90;;;;;;5053883;28;20064;-82
2023/04/01 02:52:31;;;;;;;10.00;5.25;;;9.70;99.90;;;;;;5052411;28;20123;-82
2023/04/01 02:55:00;;;;;;;11.48;4.95;;;9.60;99.90;;;;;;5071773;28;20095;-81
2023/04/01 02:57:26;;;;;;;5.53;4.18;;;9.60;99.90;;;;;;5050456;28;20047;-82
2023/04/01 02:59:52;;;;;;;9.05;5.20;;;9.70;99.90;;;;;;5069210;28;20067;-82
2023/04/01 03:02:18;;;;;;;13.63;6.57;;;9.70;99.90;;;;;;5053299;28;20102;-81
2023/04/01 03:04:43;;;;;;;9.23;5.65;;;9.60;99.90;;;;;;5055375;28;20064;-81
2023/04/01 03:07:10;;;;;;;8.95;5.80;;;9.70;99.90;;;;;;5069599;28;20048;-81
2023/04/01 03:09:37;;;;;;;13.07;6.63;;;9.60;99.90;;;;;;5050303;28;20554;-82
2023/04/01 03:12:03;;;;;;;12.82;5.97;;;9.70;99.90;;;;;;5049130;28;20606;-82
2023/04/01 03:14:29;;;;;;;11.05;5.65;;;9.70;99.90;;;;;;5047186;28;20122;-81
2023/04/01 03:16:55;;;;;;;10.20;5.97;;;9.60;99.90;;;;;;5063416;28;20503;-81
2023/04/01 03:19:21;;;;;;;11.05;5.82;;;9.60;99.90;;;;;;5054890;28;20040;-82
2023/04/01 03:21:46;;;;;;;10.80;6.20;;;9.60;99.90;;;;;;5061491;28;20044;-81
2023/04/01 03:24:12;;;;;;;11.77;5.82;;;9.70;99.90;;;;;;5046932;28;20064;-82
2023/04/01 03:26:38;;;;;;;9.05;5.43;;;9.70;99.90;;;;;;5054283;28;20055;-82
2023/04/01 03:29:04;;;;;;;7.93;4.93;;;9.70;99.90;;;;;;5065740;28;20488;-82
2023/04/01 03:31:30;;;;;;;10.15;6.03;;;9.60;99.90;;;;;;5062254;28;20041;-81
2023/04/01 03:33:56;;;;;;;14.75;6.07;;;9.70;99.90;;;;;;5070925;28;20044;-82
2023/04/01 03:36:22;;;;;;;12.90;6.18;;;9.70;99.90;;;;;;5068235;28;20032;-82
2023/04/01 03:38:48;;;;;;;8.75;5.82;;;9.70;99.90;;;;;;5051367;28;20045;-82
2023/04/01 03:41:18;;;;;;;11.38;6.53;;;9.70;99.90;;;;;;5066959;28;20046;-81
2023/04/01 03:43:44;;;;;;;11.15;6.47;;;9.60;99.90;;;;;;5051784;28;20055;-81
2023/04/01 03:46:10;;;;;;;13.32;7.40;;;9.60;99.90;;;;;;5063399;28;20075;-81
2023/04/01 03:48:36;;;;;;;9.32;6.63;;;9.60;99.90;;;;;;5047684;28;20177;-82
2023/04/01 03:51:07;;;;;;;10.85;6.63;;;9.70;99.90;;;;;;5068605;28;20623;-82
2023/04/01 03:53:32;;;;;;;12.05;7.10;;;9.60;99.90;;;;;;5053711;28;20521;-81
2023/04/01 03:55:58;;;;;;;9.15;7.32;;;9.70;99.90;;;;;;5051422;28;20040;-82
2023/04/01 03:58:24;;;;;;;9.57;7.15;;;9.60;99.90;;;;;;5064302;28;20304;-82
2023/04/01 04:00:50;;;;;;;13.50;7.30;;;9.70;99.90;;;;;;5071533;28;20036;-82
2023/04/01 04:03:15;;;;;;;15.32;8.07;;;9.60;99.90;;;;;;5056392;28;20130;-82
2023/04/01 04:05:48;;;;;;;14.27;8.00;;;9.60;99.90;;;;;;5054053;28;20047;-82
2023/04/01 04:08:14;;;;;;;20.58;8.55;;;9.70;99.90;;;;;;5066352;28;20037;-82
2023/04/01 04:10:41;;;;;;;12.00;7.32;;;9.70;99.90;;;;;;5055681;28;20105;-83
2023/04/01 04:13:07;;;;;;;11.70;7.45;;;9.70;99.90;;;;;;5049915;28;20052;-82
2023/04/01 04:15:33;;;;;;;11.40;7.55;;;9.70;99.90;;;;;;5046847;28;20043;-82
2023/04/01 04:17:59;;;;;;;13.48;7.35;;;9.70;99.90;;;;;;5049827;28;20674;-82
2023/04/01 04:20:25;;;;;;;17.05;8.07;;;9.60;99.90;;;;;;5064319;28;20907;-82
2023/04/01 04:22:50;;;;;;;12.68;7.68;;;9.70;99.90;;;;;;5046308;28;20128;-82
2023/04/01 04:25:16;;;;;;;13.60;7.13;;;9.70;99.90;;;;;;5043896;28;20539;-82
2023/04/01 04:27:43;;;;;;;13.10;6.50;;;9.70;99.90;;;;;;5052721;28;20041;-82
2023/04/01 04:30:10;;;;;;;9.93;6.30;;;9.60;99.90;;;;;;5058153;28;20485;-82
2023/04/01 04:32:35;;;;;;;10.77;6.63;;;9.60;99.90;;;;;;5049988;28;20033;-82
2023/04/01 04:35:01;;;;;;;12.13;6.82;;;9.60;99.90;;;;;;5050494;28;20040;-83
2023/04/01 04:37:30;;;;;;;12.93;6.60;;;9.60;99.90;;;;;;5061232;28;20037;-82
2023/04/01 04:39:56;;;;;;;9.60;6.45;;;9.60;99.90;;;;;;5066808;28;20039;-82
2023/04/01 04:42:21;;;;;;;16.00;7.25;;;9.60;99.90;;;;;;5047211;28;20036;-82
2023/04/01 04:44:47;;;;;;;13.68;7.00;;;9.60;99.90;;;;;;5059756;28;20064;-82
2023/04/01 04:47:13;;;;;;;12.20;6.47;;;9.60;99.90;;;;;;5054671;28;20499;-82
2023/04/01 04:49:39;;;;;;;10.48;6.43;;;9.60;99.90;;;;;;5062387;28;20041;-83
2023/04/01 04:52:04;;;;;;;11.38;6.50;;;9.60;99.90;;;;;;5061120;28;20147;-82
2023/04/01 04:54:30;;;;;;;20.05;7.60;;;9.60;99.90;;;;;;5051340;28;20449;-83
2023/04/01 04:56:56;;;;;;;11.43;6.47;;;9.60;99.90;;;;;;5050024;28;20037;-83
2023/04/01 04:59:22;;;;;;;23.65;8.02;;;9.60;99.90;;;;;;5046104;28;20060;-82
2023/04/01 05:01:47;;;;;;;17.42;6.93;;;9.60;99.90;;;;;;5059282;28;20055;-83
2023/04/01 05:04:13;;;;;;;10.25;6.57;;;9.60;99.90;;;;;;5061797;28;20040;-82
2023/04/01 05:06:39;;;;;;;13.88;6.35;;;9.60;99.90;;;;;;5047870;28;20056;-81
2023/04/01 05:09:04;;;;;;;13.75;6.45;;;9.60;99.90;;;;;;5048379;28;20036;-82
2023/04/01 05:11:30;;;;;;;21.23;7.20;;;9.60;99.90;;;;;;5068315;28;20424;-82
2023/04/01 05:13:56;;;;;;;18.95;7.15;;;9.60;99.90;;;;;;5065993;28;20067;-82
2023/04/01 05:16:22;;;;;;;14.48;7.07;;;9.60;99.90;;;;;;5062679;28;20041;-82
2023/04/01 05:18:48;;;;;;;17.73;6.95;;;9.60;99.90;;;;;;5047538;28;20040;-82
2023/04/01 05:21:15;;;;;;;11.75;6.40;;;9.60;99.90;;;;;;5065486;28;20496;-82
2023/04/01 05:23:41;;;;;;;12.48;7.60;;;9.60;99.90;;;;;;5062324;28;20036;-82
2023/04/01 05:26:12;;;;;;;14.05;7.35;;;9.60;99.90;;;;;;5052867;28;20041;-82
2023/04/01 05:28:38;;;;;;;25.63;7.65;;;9.60;99.90;;;;;;5064049;28;20384;-82
2023/04/01 05:31:05;;;;;;;13.68;6.68;;;9.70;99.90;;;;;;5031003;28;20048;-82
2023/04/01 05:33:31;;;;;;;13.73;6.95;;;9.70;99.90;;;;;;5050139;28;20040;-81
2023/04/01 05:36:05;;;;;;;13.98;6.75;;;9.70;99.90;;;;;;5049061;28;20041;-82
2023/04/01 05:38:31;;;;;;;17.77;7.57;;;9.70;99.90;;;;;;5035890;28;20408;-82
2023/04/01 05:41:01;;;;;;;14.85;6.25;;;9.70;99.90;;;;;;5052917;28;20105;-82
2023/04/01 05:43:26;;;;;;;17.90;6.53;;;9.70;99.90;;;;;;5070575;28;20055;-81
2023/04/01 05:45:52;;;;;;;13.73;6.30;;;9.70;99.90;;;;;;5055604;28;20480;-82
2023/04/01 05:48:18;;;;;;;19.67;6.80;;;9.70;99.90;;;;;;5065520;28;20040;-82
2023/04/01 05:50:44;;;;;;;11.93;6.72;;;9.70;99.90;;;;;;5048897;28;20116;-82
2023/04/01 05:53:09;;;;;;;12.55;6.03;;;9.70;99.90;;;;;;5058172;28;20063;-82
2023/04/01 05:55:36;;;;;;;12.00;5.55;;;9.70;99.90;;;;;;5054406;28;20036;-82
2023/04/01 05:58:02;;;;;;;13.25;6.38;;;9.70;99.90;;;;;;5060822;28;20286;-82
2023/04/01 06:00:27;;;;;;;16.60;6.93;;;9.70;99.90;;;;;;5066110;28;20136;-82
2023/04/01 06:02:58;;;;;;;15.05;6.65;;;9.70;99.90;;;;;;5058062;28;20074;-82
2023/04/01 06:05:44;;;;;;;9.48;6.03;;;9.80;99.90;;;;;;5066012;28;20485;-82
2023/04/01 06:08:17;;;;;;;12.32;7.50;;;9.70;99.90;;;;;;5065380;28;20142;-82
2023/04/01 06:11:07;;;;;;;13.32;7.45;;;9.70;99.90;;;;;;5064918;28;20043;-82
2023/04/01 06:13:41;;;;;;;15.05;8.18;;;9.80;99.90;;;;;;5072046;28;20056;-84
2023/04/01 06:16:28;;;;;;;14.93;8.93;;;9.80;99.90;;;;;;5066474;28;20041;-84
2023/04/01 06:19:17;;;;;;;18.63;10.48;;;9.80;99.90;;;;;;5079064;28;20052;-84
2023/04/01 06:21:56;;;;;;;15.98;9.65;;;9.80;99.90;;;;;;5080237;28;20040;-85
2023/04/01 06:24:40;;;;;;;23.73;11.07;;;9.80;99.90;;;;;;5065811;28;20159;-85
2023/04/01 06:27:44;;;;;;;16.45;11.15;;;9.80;99.90;;;;;;5063152;28;20053;-85
2023/04/01 06:30:40;;;;;;;19.65;12.35;;;9.80;99.90;;;;;;5061469;28;20064;-84
2023/04/01 06:33:23;;;;;;;31.48;13.52;;;9.90;99.90;;;;;;5068281;28;20131;-85
2023/04/01 06:35:48;;;;;;;19.80;12.32;;;9.80;99.90;;;;;;5068070;28;20016;-84
2023/04/01 06:38:23;;;;;;;21.75;13.60;;;9.90;99.90;;;;;;5066220;28;20033;-84
2023/04/01 06:41:06;;;;;;;18.58;12.40;;;9.90;99.90;;;;;;5085518;28;20066;-84
2023/04/01 06:44:09;;;;;;;19.92;13.45;;;9.90;99.90;;;;;;5068910;28;20028;-84
2023/04/01 06:46:57;;;;;;;15.45;11.18;;;9.90;99.90;;;;;;5033970;28;20063;-83
2023/04/01 06:49:49;;;;;;;15.13;10.73;;;9.90;99.90;;;;;;5071974;28;20048;-84
2023/04/01 06:52:46;;;;;;;12.30;8.90;;;9.90;99.90;;;;;;5069811;28;20051;-84
2023/04/01 06:55:32;;;;;;;17.70;9.73;;;9.90;99.90;;;;;;5083415;28;20051;-83
2023/04/01 06:58:00;;;;;;;14.05;8.48;;;10.00;99.90;;;;;;5068666;28;20439;-83
2023/04/01 07:00:32;;;;;;;13.70;7.80;;;10.00;99.90;;;;;;5090650;28;20049;-81
2023/04/01 07:03:20;;;;;;;11.88;7.28;;;10.00;99.90;;;;;;5084643;28;20036;-84
2023/04/01 07:05:46;;;;;;;9.32;6.43;;;10.00;99.90;;;;;;5064021;28;20048;-84
2023/04/01 07:08:17;;;;;;;11.85;6.82;;;10.00;99.90;;;;;;5077351;28;20037;-84
2023/04/01 07:10:57;;;;;;;9.70;7.05;;;10.10;99.90;;;;;;5058993;28;20591;-84
2023/04/01 07:13:40;;;;;;;9.32;7.20;;;10.10;99.90;;;;;;5075284;28;20449;-84
2023/04/01 07:16:38;;;;;;;9.85;7.00;;;10.10;99.90;;;;;;5075750;28;20048;-84
2023/04/01 07:19:41;;;;;;;9.45;5.68;;;10.20;99.90;;;;;;5073531;28;20049;-82
2023/04/01 07:22:26;;;;;;;9.93;6.30;;;10.20;99.90;;;;;;5062737;28;20084;-83
2023/04/01 07:24:54;;;;;;;10.95;6.88;;;10.20;99.90;;;;;;5067913;28;20044;-84
2023/04/01 07:27:19;;;;;;;11.60;6.43;;;10.30;99.90;;;;;;5063879;28;20135;-79
2023/04/01 07:29:45;;;;;;;10.07;6.65;;;10.40;99.90;;;;;;5054532;28;20694;-80
2023/04/01 07:33:02;;;;;;;6.35;5.20;;;10.50;99.90;;;;;;5069819;28;20165;-79
2023/04/01 07:35:37;;;;;;;6.72;6.00;;;10.50;99.90;;;;;;5025692;28;20041;-79
2023/04/01 07:38:35;;;;;;;6.55;5.57;;;10.50;99.90;;;;;;5064100;28;20041;-79
2023/04/01 07:41:26;;;;;;;7.85;6.15;;;10.50;99.90;;;;;;5069517;28;20117;-79
2023/04/01 07:44:10;;;;;;;6.55;5.15;;;10.40;99.90;;;;;;5067650;28;20040;-79
2023/04/01 07:46:39;;;;;;;6.88;4.75;;;10.40;99.90;;;;;;5057107;28;20072;-79
2023/04/01 07:49:42;;;;;;;6.70;4.88;;;10.40;99.90;;;;;;5054308;28;20041;-78
2023/04/01 07:52:33;;;;;;;6.90;6.20;;;10.40;99.90;;;;;;5057224;28;20040;-82
2023/04/01 07:55:16;;;;;;;6.88;6.18;;;10.40;99.90;;;;;;5067286;28;20043;-79
2023/04/01 07:57:59;;;;;;;8.40;7.43;;;10.40;99.90;;;;;;5085414;28;20045;-79
2023/04/01 08:00:35;;;;;;;8.82;7.43;;;10.50;99.90;;;;;;5070912;28;20060;-81
2023/04/01 08:03:18;;;;;;;9.57;7.63;;;10.50;99.90;;;;;;5054226;28;20071;-80
2023/04/01 08:06:19;;;;;;;9.13;7.72;;;10.50;99.90;;;;;;5051866;28;20071;-79
2023/04/01 08:09:25;;;;;;;8.07;7.28;;;10.50;99.90;;;;;;5055799;28;20052;-80
2023/04/01 08:12:11;;;;;;;8.30;7.50;;;10.50;99.90;;;;;;5058581;28;20040;-79
2023/04/01 08:15:04;;;;;;;8.77;7.82;;;10.50;99.90;;;;;;5050111;28;20472;-79
2023/04/01 08:17:48;;;;;;;26.80;24.10;;;10.50;99.90;;;;;;5052097;28;20092;-79
2023/04/01 08:20:43;;;;;;;12.85;11.55;;;10.50;99.90;;;;;;5055190;28;20060;-79
2023/04/01 08:23:28;;;;;;;9.40;8.40;;;10.50;99.90;;;;;;5045762;28;20044;-79
2023/04/01 08:26:06;;;;;;;9.25;8.15;;;10.60;99.90;;;;;;5056002;28;20068;-80
2023/04/01 08:28:44;;;;;;;10.48;8.88;;;10.60;99.90;;;;;;5067490;28;20041;-79
2023/04/01 08:31:26;;;;;;;10.25;9.05;;;10.60;99.90;;;;;;5069546;28;20116;-79
2023/04/01 08:33:54;;;;;;;10.07;8.93;;;10.70;99.90;;;;;;5048185;28;20056;-79
2023/04/01 08:36:33;;;;;;;10.70;8.88;;;10.70;99.90;;;;;;5070415;28;20037;-79
2023/04/01 08:39:10;;;;;;;9.52;8.57;;;10.80;99.90;;;;;;5070044;28;20037;-79
2023/04/01 08:41:54;;;;;;;11.38;8.63;;;10.70;99.90;;;;;;5050936;28;20487;-79
2023/04/01 08:45:00;;;;;;;8.35;7.55;;;10.80;99.90;;;;;;5053914;28;20441;-79
2023/04/01 08:48:08;;;;;;;8.38;7.57;;;10.70;99.90;;;;;;5066031;28;20102;-79
2023/04/01 08:50:33;;;;;;;5.55;4.97;;;10.70;99.90;;;;;;5071714;28;20052;-80
2023/04/01 08:53:30;;;;;;;3.45;2.60;;;10.80;99.90;;;;;;5058263;28;20037;-79
2023/04/01 08:56:18;;;;;;;3.95;2.80;;;11.10;99.90;;;;;;5063032;28;20369;-79
2023/04/01 08:58:56;;;;;;;5.38;3.75;;;11.20;99.90;;;;;;5063945;28;20045;-79
2023/04/01 09:01:31;;;;;;;3.63;3.28;;;11.30;99.90;;;;;;5074253;28;20055;-78
2023/04/01 09:04:08;;;;;;;3.80;3.40;;;11.30;99.90;;;;;;5057113;28;20484;-80
2023/04/01 09:07:04;;;;;;;2.85;2.55;;;11.40;99.90;;;;;;5059244;28;20052;-82
2023/04/01 09:10:02;;;;;;;3.53;2.50;;;11.30;99.90;;;;;;5072398;28;20033;-78
2023/04/01 09:12:44;;;;;;;2.40;2.20;;;11.30;99.90;;;;;;5058686;28;20106;-78
2023/04/01 09:15:34;;;;;;;4.00;3.13;;;11.20;99.90;;;;;;5069246;28;20107;-78
2023/04/01 09:18:05;;;;;;;6.47;3.50;;;11.20;99.90;;;;;;5062290;28;20044;-79
2023/04/01 09:20:52;;;;;;;5.78;4.68;;;11.20;99.90;;;;;;5053830;28;20131;-79
2023/04/01 09:23:33;;;;;;;5.10;4.60;;;11.20;99.90;;;;;;5075459;28;20117;-77
2023/04/01 09:26:28;;;;;;;6.53;5.80;;;11.20;99.90;;;;;;5054428;28;20049;-80
2023/04/01 09:29:38;;;;;;;7.05;6.35;;;11.20;99.90;;;;;;5016629;28;20444;-79
2023/04/01 09:32:26;;;;;;;7.65;6.95;;;11.20;99.90;;;;;;5068445;28;20036;-78
2023/04/01 09:35:01;;;;;;;8.23;7.47;;;11.40;99.90;;;;;;5068814;28;20123;-79
2023/04/01 09:37:26;;;;;;;8.52;7.72;;;11.40;99.90;;;;;;5073552;28;20668;-78
2023/04/01 09:40:18;;;;;;;8.98;8.07;;;11.40;99.90;;;;;;5069324;28;20037;-78
2023/04/01 09:43:02;;;;;;;10.02;9.02;;;11.50;99.90;;;;;;5024244;28;20076;-78
2023/04/01 09:45:37;;;;;;;9.02;8.13;;;11.50;99.90;;;;;;5073741;28;20108;-80
2023/04/01 09:48:17;;;;;;;10.40;8.77;;;11.60;99.90;;;;;;5058919;28;20123;-78
2023/04/01 09:50:52;;;;;;;10.05;9.15;;;11.60;99.90;;;;;;5053544;28;20072;-78
2023/04/01 09:53:27;;;;;;;9.90;8.90;;;11.50;99.90;;;;;;5071410;28;20039;-79
2023/04/01 09:56:24;;;;;;;10.60;9.57;;;11.40;99.90;;;;;;5074443;28;20033;-84
2023/04/01 09:59:02;;;;;;;10.75;9.63;;;11.40;99.90;;;;;;5066686;28;20090;-84
2023/04/01 10:01:49;;;;;;;11.05;9.90;;;11.40;99.90;;;;;;5054988;28;20382;-83
2023/04/01 10:04:18;;;;;;;10.73;9.63;;;11.40;99.90;;;;;;5063798;28;20108;-83
2023/04/01 10:07:03;;;;;;;10.98;9.90;;;11.40;99.90;;;;;;5073896;28;20041;-83
2023/04/01 10:09:50;;;;;;;10.15;9.25;;;11.40;99.90;;;;;;5064215;28;20043;-83
2023/04/01 10:12:53;;;;;;;11.27;10.27;;;11.40;99.90;;;;;;5072666;28;20044;-84
2023/04/01 10:15:28;;;;;;;11.40;10.38;;;11.40;99.90;;;;;;5029691;28;20048;-83
2023/04/01 10:18:09;;;;;;;10.75;9.75;;;11.50;99.90;;;;;;5068556;28;20048;-84
2023/04/01 10:20:52;;;;;;;10.75;9.65;;;11.50;99.90;;;;;;5059229;28;20045;-84
2023/04/01 10:23:40;;;;;;;11.50;10.38;;;11.60;99.90;;;;;;5064033;28;20041;-80
2023/04/01 10:26:42;;;;;;;11.45;10.35;;;11.70;99.90;;;;;;5064053;28;20041;-81
2023/04/01 10:29:38;;;;;;;11.35;10.25;;;11.70;99.90;;;;;;5058988;28;20488;-80
2023/04/01 10:32:23;;;;;;;11.70;10.48;;;11.70;99.90;;;;;;5076113;28;20037;-80
2023/04/01 10:35:07;;;;;;;10.82;9.82;;;11.70;99.90;;;;;;5069469;28;20128;-80
2023/04/01 10:37:58;;;;;;;10.60;9.60;;;11.70;99.90;;;;;;5070319;28;20041;-81
2023/04/01 10:40:57;;;;;;;11.68;10.63;;;11.70;99.90;;;;;;5045945;28;20041;-80
2023/04/01 10:43:35;;;;;;;12.38;10.55;;;11.70;99.90;;;;;;5060226;28;20133;-81
2023/04/01 10:46:35;;;;;;;11.73;10.73;;;11.60;99.90;;;;;;5071585;28;20037;-80
2023/04/01 10:49:24;;;;;;;11.25;10.25;;;11.60;99.90;;;;;;5078670;28;20036;-80
2023/04/01 10:52:14;;;;;;;12.43;11.18;;;11.60;99.90;;;;;;5057481;28;20045;-78
2023/04/01 10:55:12;;;;;;;19.73;17.67;;;11.60;99.90;;;;;;5055503;28;20037;-80
2023/04/01 10:57:47;;;;;;;11.73;10.63;;;11.60;99.90;;;;;;5028223;28;20104;-80
2023/04/01 11:00:46;;;;;;;10.38;9.38;;;11.60;99.90;;;;;;5064806;28;20096;-80
2023/04/01 11:04:00;;;;;;;9.75;8.70;;;11.70;99.90;;;;;;5074117;28;20048;-80
2023/04/01 11:06:48;;;;;;;6.47;5.88;;;11.60;99.90;;;;;;5059188;28;20052;-79
2023/04/01 11:09:40;;;;;;;5.40;4.90;;;11.60;99.90;;;;;;5068834;28;20041;-81
2023/04/01 11:12:15;;;;;;;5.43;4.60;;;11.50;99.90;;;;;;5061461;28;20714;-82
2023/04/01 11:15:16;;;;;;;6.38;4.95;;;11.30;99.90;;;;;;5067170;28;20049;-82
2023/04/01 11:17:45;;;;;;;6.25;5.43;;;11.20;99.90;;;;;;5050888;28;20040;-82
2023/04/01 11:20:42;;;;;;;6.20;5.57;;;11.00;99.90;;;;;;5061123;28;20123;-82
2023/04/01 11:23:45;;;;;;;5.78;5.20;;;10.90;99.90;;;;;;5068162;28;20049;-81
2023/04/01 11:27:02;;;;;;;5.40;4.90;;;10.90;99.90;;;;;;5053739;28;20034;-81
2023/04/01 11:29:38;;;;;;;5.50;5.00;;;10.70;99.90;;;;;;5052203;28;20100;-82
2023/04/01 11:32:32;;;;;;;5.22;4.72;;;10.70;99.90;;;;;;5054909;28;20052;-81
2023/04/01 11:35:16;;;;;;;6.18;5.68;;;10.60;99.90;;;;;;5066468;28;20037;-80
2023/04/01 11:37:49;;;;;;;5.47;4.93;;;10.50;99.90;;;;;;5074466;28;20036;-80
2023/04/01 11:40:35;;;;;;;5.70;5.18;;;10.40;99.90;;;;;;5052283;28;20076;-81
2023/04/01 11:43:30;;;;;;;6.43;5.82;;;10.40;99.90;;;;;;5075503;28;20392;-79
2023/04/01 11:46:11;;;;;;;6.00;5.50;;;10.30;99.90;;;;;;5063614;28;20068;-81
2023/04/01 11:48:54;;;;;;;7.93;7.15;;;10.20;99.90;;;;;;5054517;28;20048;-82
2023/04/01 11:51:44;;;;;;;4.85;4.45;;;10.10;99.90;;;;;;5053390;28;20013;-81
2023/04/01 11:54:28;;;;;;;4.45;4.05;;;10.00;99.90;;;;;;5062756;28;20476;-80
2023/04/01 11:57:05;;;;;;;4.90;4.50;;;10.10;99.90;;;;;;5057206;28;20071;-76
2023/04/01 11:59:56;;;;;;;4.80;4.30;;;10.00;99.90;;;;;;5067884;28;20086;-79
2023/04/01 12:02:52;;;;;;;4.95;4.32;;;10.00;99.90;;;;;;5060864;28;20045;-80
2023/04/01 12:05:37;;;;;;;4.07;3.78;;;10.00;99.90;;;;;;5047129;28;20040;-80
2023/04/01 12:08:38;;;;;;;4.00;3.70;;;10.00;99.90;;;;;;5064160;28;20049;-81
2023/04/01 12:11:27;;;;;;;4.43;4.10;;;10.00;99.90;;;;;;5056454;28;20021;-82
2023/04/01 12:13:58;;;;;;;4.70;4.25;;;10.00;99.90;;;;;;5043738;28;21210;-81
2023/04/01 12:16:55;;;;;;;4.47;4.07;;;10.10;99.90;;;;;;5082482;28;20558;-81
2023/04/01 12:19:43;;;;;;;4.63;4.22;;;10.20;99.90;;;;;;5082388;28;20044;-81
2023/04/01 12:22:17;;;;;;;4.05;3.75;;;10.20;99.90;;;;;;5065422;28;20046;-82
2023/04/01 12:25:15;;;;;;;3.90;3.55;;;10.30;99.90;;;;;;5079938;28;20055;-81
2023/04/01 12:27:59;;;;;;;4.72;3.25;;;10.30;99.90;;;;;;5086278;28;20040;-81
2023/04/01 12:30:40;;;;;;;3.90;3.42;;;10.30;99.90;;;;;;5071796;28;20041;-80
2023/04/01 12:33:30;;;;;;;3.40;3.10;;;10.20;99.90;;;;;;5083575;28;20127;-82
2023/04/01 12:36:12;;;;;;;4.30;3.85;;;10.10;99.90;;;;;;5059785;28;20040;-80
2023/04/01 12:38:52;;;;;;;3.50;3.20;;;10.10;99.90;;;;;;5051898;28;20051;-81
2023/04/01 12:41:27;;;;;;;4.22;3.92;;;10.10;99.90;;;;;;5047371;28;20612;-80
2023/04/01 12:44:33;;;;;;;3.70;3.40;;;10.10;99.90;;;;;;5058714;28;20039;-81
2023/04/01 12:47:33;;;;;;;4.28;3.08;;;10.10;99.90;;;;;;5051442;28;20128;-81
2023/04/01 12:50:27;;;;;;;3.30;3.00;;;10.20;99.90;;;;;;5052750;28;20431;-81
2023/04/01 12:53:33;;;;;;;4.20;3.90;;;10.10;99.90;;;;;;5069391;28;20123;-81
2023/04/01 12:56:01;;;;;;;4.70;3.53;;;10.10;99.90;;;;;;5057443;28;20099;-81
2023/04/01 12:58:45;;;;;;;3.67;3.38;;;10.00;99.90;;;;;;5049471;28;20051;-81
2023/04/01 13:01:28;;;;;;;4.30;3.90;;;10.00;99.90;;;;;;5059349;28;20047;-80
2023/04/01 13:04:30;;;;;;;3.92;3.63;;;10.00;99.90;;;;;;5069109;28;20048;-78
2023/04/01 13:07:19;;;;;;;3.05;1.75;;;10.00;99.90;;;;;;5078588;28;20471;-77
2023/04/01 13:10:05;;;;;;;3.72;3.42;;;9.90;99.90;;;;;;5054279;28;20052;-78
2023/04/01 13:13:04;;;;;;;3.55;3.25;;;10.00;99.90;;;;;;5061069;28;20036;-77
2023/04/01 13:15:43;;;;;;;3.85;3.55;;;10.00;99.90;;;;;;5054630;28;20052;-77
2023/04/01 13:18:33;;;;;;;2.67;2.47;;;10.00;99.90;;;;;;5067564;28;20119;-77
2023/04/01 13:21:37;;;;;;;2.55;2.35;;;10.10;99.90;;;;;;5074062;28;20095;-79
2023/04/01 13:24:29;;;;;;;2.75;2.55;;;10.00;99.90;;;;;;5061088;28;20542;-79
2023/04/01 13:27:16;;;;;;;2.20;2.00;;;10.00;99.90;;;;;;5086900;28;20074;-78
2023/04/01 13:30:00;;;;;;;2.95;2.75;;;9.90;99.90;;;;;;5075119;28;20048;-79
2023/04/01 13:32:46;;;;;;;2.78;2.58;;;9.90;99.90;;;;;;5075496;28;20095;-79
2023/04/01 13:35:41;;;;;;;2.60;2.40;;;9.90;99.90;;;;;;5058242;28;20040;-79
2023/04/01 13:38:10;;;;;;;;;;;9.90;99.90;;;;;;5070351;28;20405;-78
2023/04/01 13:40:49;;;;;;;3.40;3.10;;;9.80;99.90;;;;;;5059193;28;19920;-78
2023/04/01 13:43:35;;;;;;;2.63;2.42;;;9.60;99.90;;;;;;5059589;28;20041;-78